createdAt,value
2022-09-23T00:02:18.229Z,17.23
2022-09-23T00:04:46.892Z,19.58
2022-09-23T00:07:15.265Z,20.23
2022-09-23T00:09:43.703Z,18.27
2022-09-23T00:12:12.178Z,17.00
2022-09-23T00:14:41.974Z,18.17
2022-09-23T00:17:10.540Z,18.27
2022-09-23T00:19:40.472Z,20.88
2022-09-23T00:22:09.021Z,18.10
2022-09-23T00:24:37.645Z,16.65
2022-09-23T00:27:06.581Z,16.73
2022-09-23T00:29:37.042Z,17.55
2022-09-23T00:32:06.878Z,18.40
2022-09-23T00:34:35.306Z,19.13
2022-09-23T00:37:03.781Z,16.17
2022-09-23T00:39:33.007Z,18.27
2022-09-23T00:42:01.397Z,17.85
2022-09-23T00:44:48.576Z,18.33
2022-09-23T00:47:22.938Z,16.77
2022-09-23T00:49:57.218Z,18.95
2022-09-23T00:52:25.657Z,18.45
2022-09-23T00:54:55.162Z,16.42
2022-09-23T00:57:23.582Z,16.48
2022-09-23T00:59:52.089Z,15.65
2022-09-23T01:02:22.245Z,18.45
2022-09-23T01:04:51.629Z,16.33
2022-09-23T01:07:20.283Z,16.13
2022-09-23T01:09:48.717Z,16.55
2022-09-23T01:12:35.438Z,16.17
2022-09-23T01:15:09.649Z,15.70
2022-09-23T01:17:44.282Z,17.52
2022-09-23T01:20:59.858Z,14.50
2022-09-23T01:24:03.762Z,14.25
2022-09-23T01:27:04.793Z,15.27
2022-09-23T01:30:13.742Z,15.18
2022-09-23T01:33:00.217Z,15.52
2022-09-23T01:35:31.958Z,14.10
2022-09-23T01:38:08.663Z,14.70
2022-09-23T01:40:44.476Z,15.43
2022-09-23T01:43:15.743Z,16.73
2022-09-23T01:45:46.164Z,14.20
2022-09-23T01:48:19.348Z,14.25
2022-09-23T01:50:57.823Z,12.95
2022-09-23T01:53:33.148Z,15.38
2022-09-23T01:56:04.876Z,13.02
2022-09-23T01:58:38.284Z,16.48
2022-09-23T02:01:08.350Z,15.18
2022-09-23T02:03:44.036Z,13.77
2022-09-23T02:06:15.768Z,13.77
2022-09-23T02:08:46.880Z,12.05
2022-09-23T02:11:16.094Z,15.20
2022-09-23T02:13:49.333Z,12.52
2022-09-23T02:16:25.867Z,16.25
2022-09-23T02:18:58.988Z,13.27
2022-09-23T02:21:31.012Z,14.60
2022-09-23T02:24:04.614Z,15.00
2022-09-23T02:26:35.993Z,14.10
2022-09-23T02:29:10.913Z,12.05
2022-09-23T02:31:42.824Z,15.27
2022-09-23T02:34:20.699Z,15.55
2022-09-23T02:36:57.435Z,14.40
2022-09-23T02:39:28.797Z,14.40
2022-09-23T02:42:00.404Z,13.80
2022-09-23T02:44:29.278Z,14.68
2022-09-23T02:46:58.009Z,13.05
2022-09-23T02:49:29.484Z,11.18
2022-09-23T02:52:03.651Z,14.32
2022-09-23T02:54:33.590Z,13.40
2022-09-23T02:57:02.973Z,14.18
2022-09-23T02:59:31.624Z,12.40
2022-09-23T03:02:42.801Z,12.98
2022-09-23T03:05:21.794Z,13.18
2022-09-23T03:07:57.032Z,11.73
2022-09-23T03:10:27.649Z,14.50
2022-09-23T03:13:04.749Z,12.50
2022-09-23T03:15:36.604Z,12.68
2022-09-23T03:18:13.033Z,12.13
2022-09-23T03:20:45.623Z,11.63
2022-09-23T03:23:15.645Z,13.85
2022-09-23T03:25:45.876Z,13.07
2022-09-23T03:28:14.343Z,12.75
2022-09-23T03:30:43.595Z,10.15
2022-09-23T03:33:13.975Z,13.43
2022-09-23T03:36:02.175Z,12.10
2022-09-23T03:38:34.208Z,11.95
2022-09-23T03:41:02.988Z,10.88
2022-09-23T03:43:35.273Z,12.65
2022-09-23T03:46:08.800Z,13.68
2022-09-23T03:48:37.327Z,13.35
2022-09-23T03:51:21.406Z,10.35
2022-09-23T03:53:50.000Z,12.75
2022-09-23T03:56:18.423Z,10.25
2022-09-23T03:58:47.397Z,11.30
2022-09-23T04:01:16.136Z,10.68
2022-09-23T04:03:44.711Z,13.30
2022-09-23T04:06:14.700Z,10.48
2022-09-23T04:08:43.357Z,14.32
2022-09-23T04:11:11.916Z,10.85
2022-09-23T04:13:40.669Z,11.65
2022-09-23T04:16:09.069Z,11.93
2022-09-23T04:18:37.603Z,12.80
2022-09-23T04:21:06.405Z,13.93
2022-09-23T04:23:36.348Z,11.43
2022-09-23T04:26:06.322Z,11.70
2022-09-23T04:28:34.902Z,9.45
2022-09-23T04:31:05.524Z,11.07
2022-09-23T04:33:34.073Z,10.73
2022-09-23T04:36:03.072Z,13.30
2022-09-23T04:38:31.521Z,11.13
2022-09-23T04:41:01.555Z,11.65
2022-09-23T04:43:29.942Z,10.85
2022-09-23T04:46:01.762Z,10.23
2022-09-23T04:48:30.378Z,11.05
2022-09-23T04:51:04.283Z,10.50
2022-09-23T04:53:32.944Z,10.30
2022-09-23T04:56:07.658Z,10.57
2022-09-23T04:58:36.573Z,10.23
2022-09-23T05:01:15.691Z,12.38
2022-09-23T05:03:44.551Z,10.75
2022-09-23T05:06:14.724Z,11.05
2022-09-23T05:08:43.795Z,8.73
2022-09-23T05:11:13.748Z,9.18
2022-09-23T05:13:42.209Z,9.90
2022-09-23T05:16:12.583Z,10.13
2022-09-23T05:18:43.044Z,10.60
2022-09-23T05:21:11.561Z,9.55
2022-09-23T05:23:40.641Z,10.43
2022-09-23T05:26:10.553Z,10.25
2022-09-23T05:28:40.553Z,11.88
2022-09-23T05:31:15.861Z,11.70
2022-09-23T05:33:49.988Z,10.57
2022-09-23T05:36:18.961Z,10.27
2022-09-23T05:38:48.711Z,12.27
2022-09-23T05:41:17.355Z,9.57
2022-09-23T05:43:47.413Z,9.52
2022-09-23T05:46:17.415Z,9.77
2022-09-23T05:48:47.405Z,14.27
2022-09-23T05:51:17.439Z,10.95
2022-09-23T05:53:46.088Z,10.60
2022-09-23T05:56:15.146Z,10.20
2022-09-23T05:58:43.616Z,8.82
2022-09-23T06:01:14.892Z,10.65
2022-09-23T06:03:43.453Z,9.52
2022-09-23T06:06:14.682Z,12.63
2022-09-23T06:08:43.187Z,10.88
2022-09-23T06:11:13.813Z,10.90
2022-09-23T06:13:42.461Z,8.93
2022-09-23T06:16:13.873Z,10.68
2022-09-23T06:18:43.048Z,13.35
2022-09-23T06:21:13.836Z,14.90
2022-09-23T06:23:42.426Z,12.27
2022-09-23T06:26:12.397Z,10.90
2022-09-23T06:28:43.097Z,12.35
2022-09-23T06:31:15.453Z,8.48
2022-09-23T06:33:45.035Z,8.77
2022-09-23T06:36:21.004Z,10.68
2022-09-23T06:38:59.238Z,8.10
2022-09-23T06:41:27.759Z,10.70
2022-09-23T06:43:56.198Z,10.82
2022-09-23T06:46:26.140Z,9.70
2022-09-23T06:48:54.671Z,9.07
2022-09-23T06:51:23.167Z,9.05
2022-09-23T06:53:51.709Z,9.95
2022-09-23T06:56:23.083Z,10.00
2022-09-23T06:58:53.072Z,8.13
2022-09-23T07:01:22.372Z,9.52
2022-09-23T07:03:52.520Z,10.80
2022-09-23T07:06:20.903Z,8.00
2022-09-23T07:08:51.357Z,7.93
2022-09-23T07:11:23.013Z,11.57
2022-09-23T07:13:51.698Z,8.45
2022-09-23T07:16:21.434Z,9.77
2022-09-23T07:18:52.945Z,8.63
2022-09-23T07:21:21.499Z,9.07
2022-09-23T07:23:52.081Z,9.80
2022-09-23T07:26:20.966Z,7.63
2022-09-23T07:28:49.472Z,9.45
2022-09-23T07:31:29.027Z,8.90
2022-09-23T07:34:04.665Z,10.57
2022-09-23T07:36:33.230Z,9.35
2022-09-23T07:39:03.463Z,7.97
2022-09-23T07:41:32.809Z,7.82
2022-09-23T07:44:01.668Z,8.60
2022-09-23T07:46:32.133Z,8.23
2022-09-23T07:49:00.827Z,9.77
2022-09-23T07:51:36.012Z,8.25
2022-09-23T07:54:05.819Z,8.10
2022-09-23T07:56:35.187Z,9.05
2022-09-23T07:59:04.592Z,8.30
2022-09-23T08:01:35.001Z,8.68
2022-09-23T08:04:05.764Z,8.43
2022-09-23T08:06:35.925Z,7.93
2022-09-23T08:09:04.423Z,7.93
2022-09-23T08:11:32.935Z,7.93
2022-09-23T08:14:01.454Z,13.52
2022-09-23T08:16:30.051Z,15.80
2022-09-23T08:18:58.563Z,13.38
2022-09-23T08:21:27.487Z,7.00
2022-09-23T08:23:59.337Z,13.57
2022-09-23T08:26:27.725Z,8.32
2022-09-23T08:28:56.641Z,6.93
2022-09-23T08:31:25.356Z,14.15
2022-09-23T08:33:56.716Z,11.70
2022-09-23T08:36:25.283Z,12.05
2022-09-23T08:38:53.792Z,7.90
2022-09-23T08:41:29.092Z,7.63
2022-09-23T08:44:00.580Z,9.80
2022-09-23T08:46:33.161Z,15.80
2022-09-23T08:49:01.779Z,9.63
2022-09-23T08:51:36.454Z,9.95
2022-09-23T08:54:05.163Z,7.75
2022-09-23T08:56:35.411Z,8.68
2022-09-23T08:59:07.545Z,112.95
2022-09-23T09:01:40.731Z,43.00
2022-09-23T09:04:18.839Z,12.88
2022-09-23T09:06:53.927Z,13.52
2022-09-23T09:09:25.959Z,12.80
2022-09-23T09:12:02.267Z,13.88
2022-09-23T09:14:38.034Z,14.85
2022-09-23T09:17:09.049Z,14.50
2022-09-23T09:19:55.403Z,13.25
2022-09-23T09:25:20.676Z,14.65
2022-09-23T09:27:50.616Z,14.10
2022-09-23T09:30:25.110Z,20.20
2022-09-23T09:32:58.792Z,13.25
2022-09-23T09:35:38.668Z,13.77
2022-09-23T09:38:07.485Z,12.88
2022-09-23T09:40:37.314Z,13.30
2022-09-23T09:43:07.529Z,14.10
2022-09-23T09:45:57.954Z,18.88
2022-09-23T09:48:32.456Z,16.83
2022-09-23T09:51:01.821Z,22.95
2022-09-23T09:53:32.173Z,31.55
2022-09-23T09:56:05.393Z,36.17
2022-09-23T09:58:47.004Z,28.38
2022-09-23T10:01:23.458Z,42.88
2022-09-23T10:03:56.989Z,39.22
2022-09-23T10:06:28.745Z,36.58
2022-09-23T10:09:17.121Z,22.55
2022-09-23T10:11:46.595Z,34.75
2022-09-23T10:14:18.635Z,33.00
2022-09-23T10:16:48.990Z,36.70
2022-09-23T10:19:25.891Z,57.72
2022-09-23T10:21:56.956Z,43.00
2022-09-23T10:24:27.411Z,51.15
2022-09-23T10:26:59.525Z,50.88
2022-09-23T10:29:32.734Z,55.22
2022-09-23T10:32:33.673Z,47.75
2022-09-23T10:35:14.675Z,47.88
2022-09-23T10:37:45.362Z,43.15
2022-09-23T10:40:38.164Z,51.13
2022-09-23T10:43:43.546Z,48.67
2022-09-23T10:46:36.451Z,41.15
2022-09-23T10:49:44.198Z,40.45
2022-09-23T10:52:39.515Z,55.22
2022-09-23T10:55:32.749Z,43.72
2022-09-23T10:58:24.822Z,40.17
2022-09-23T11:01:03.137Z,45.53
2022-09-23T11:04:22.578Z,34.63
2022-09-23T11:07:07.317Z,43.25
2022-09-23T11:09:44.886Z,57.88
2022-09-23T11:12:21.287Z,43.42
2022-09-23T11:15:11.045Z,51.33
2022-09-23T11:17:59.985Z,35.97
2022-09-23T11:20:39.305Z,41.13
2022-09-23T11:23:29.400Z,37.13
2022-09-23T11:26:03.276Z,36.45
2022-09-23T11:29:04.465Z,35.47
2022-09-23T11:31:39.031Z,32.60
2022-09-23T11:34:34.579Z,28.67
2022-09-23T11:37:06.805Z,28.05
2022-09-23T11:39:39.033Z,28.40
2022-09-23T11:42:09.539Z,26.45
2022-09-23T11:44:41.235Z,23.42
2022-09-23T11:47:13.254Z,25.52
2022-09-23T11:49:43.430Z,24.88
2022-09-23T11:52:19.535Z,22.88
2022-09-23T11:54:52.419Z,25.10
2022-09-23T11:57:25.528Z,21.20
2022-09-23T11:59:57.750Z,22.65
2022-09-23T12:02:30.885Z,20.15
2022-09-23T12:05:04.592Z,20.27
2022-09-23T12:07:45.393Z,20.23
2022-09-23T12:10:13.912Z,18.42
2022-09-23T12:12:48.961Z,18.83
2022-09-23T12:15:28.012Z,15.80
2022-09-23T12:18:23.427Z,18.08
2022-09-23T12:21:08.408Z,18.83
2022-09-23T12:23:55.666Z,16.08
2022-09-23T12:26:25.442Z,19.25
2022-09-23T12:28:55.581Z,17.42
2022-09-23T12:31:30.651Z,17.55
2022-09-23T12:34:00.685Z,18.67
2022-09-23T12:36:34.780Z,15.70
2022-09-23T12:39:07.281Z,19.45
2022-09-23T12:41:38.176Z,15.27
2022-09-23T12:44:28.973Z,22.40
2022-09-23T12:47:31.353Z,16.58
2022-09-23T12:50:01.175Z,19.42
2022-09-23T12:52:31.553Z,16.25
2022-09-23T12:55:51.682Z,15.95
2022-09-23T12:58:39.417Z,17.42
2022-09-23T13:01:09.076Z,12.90
2022-09-23T13:03:54.975Z,14.57
2022-09-23T13:06:40.195Z,15.32
2022-09-23T13:09:11.218Z,13.27
2022-09-23T13:11:43.338Z,14.70
2022-09-23T13:14:14.083Z,16.95
2022-09-23T13:16:43.818Z,13.32
2022-09-23T13:19:44.845Z,12.70
2022-09-23T13:22:13.472Z,14.75
2022-09-23T13:24:46.104Z,14.02
2022-09-23T13:27:26.666Z,11.55
2022-09-23T13:30:00.988Z,10.70
2022-09-23T13:32:33.210Z,11.20
2022-09-23T13:35:04.435Z,11.85
2022-09-23T13:37:43.397Z,10.07
2022-09-23T13:40:20.596Z,11.32
2022-09-23T13:42:55.115Z,12.77
2022-09-23T13:45:24.215Z,9.73
2022-09-23T13:47:53.836Z,9.43
2022-09-23T13:50:23.357Z,10.13
2022-09-23T13:52:54.155Z,9.88
2022-09-23T13:55:32.217Z,9.82
2022-09-23T13:58:04.180Z,12.95
2022-09-23T14:00:37.793Z,11.52
2022-09-23T14:03:32.406Z,9.88
2022-09-23T14:06:07.236Z,9.70
2022-09-23T14:08:36.162Z,10.00
2022-09-23T14:11:05.172Z,10.93
2022-09-23T14:13:41.691Z,12.52
2022-09-23T14:16:12.577Z,13.52
2022-09-23T14:18:42.503Z,12.30
2022-09-23T14:21:29.635Z,13.10
2022-09-23T14:23:58.090Z,11.02
2022-09-23T14:26:26.520Z,8.55
2022-09-23T14:28:56.274Z,8.40
2022-09-23T14:31:24.850Z,10.00
2022-09-23T14:33:53.377Z,9.25
2022-09-23T14:36:39.485Z,10.70
2022-09-23T14:39:10.531Z,9.07
2022-09-23T14:41:40.071Z,9.32
2022-09-23T14:44:19.347Z,11.27
2022-09-23T14:46:56.656Z,12.07
2022-09-23T14:49:25.081Z,9.35
2022-09-23T14:51:54.682Z,9.77
2022-09-23T14:54:47.519Z,9.55
2022-09-23T14:57:29.476Z,13.63
2022-09-23T15:00:02.512Z,14.18
2022-09-23T15:02:37.722Z,14.95
2022-09-23T15:05:17.889Z,13.80
2022-09-23T15:07:51.344Z,12.38
2022-09-23T15:10:23.924Z,14.45
2022-09-23T15:12:53.511Z,14.25
2022-09-23T15:15:28.043Z,11.93
2022-09-23T15:17:56.570Z,12.05
2022-09-23T15:20:26.913Z,12.32
2022-09-23T15:22:56.597Z,10.00
2022-09-23T15:25:28.267Z,16.02
2022-09-23T15:27:58.444Z,14.88
2022-09-23T15:30:28.240Z,10.55
2022-09-23T15:32:56.760Z,13.75
2022-09-23T15:35:26.853Z,12.60
2022-09-23T15:37:58.328Z,11.40
2022-09-23T15:40:28.282Z,13.93
2022-09-23T15:42:58.708Z,10.93
2022-09-23T15:45:34.392Z,11.43
2022-09-23T15:48:07.429Z,11.55
2022-09-23T15:50:36.225Z,11.68
2022-09-23T15:53:04.871Z,8.00
2022-09-23T15:55:33.796Z,12.25
2022-09-23T15:58:02.299Z,10.68
2022-09-23T16:00:32.056Z,9.63
2022-09-23T16:03:01.174Z,12.35
2022-09-23T16:05:34.189Z,9.10
2022-09-23T16:08:08.467Z,8.95
2022-09-23T16:10:38.067Z,10.85
2022-09-23T16:13:09.160Z,10.68
2022-09-23T16:15:39.860Z,12.40
2022-09-23T16:18:08.647Z,12.30
2022-09-23T16:20:38.420Z,12.32
2022-09-23T16:23:08.862Z,10.95
2022-09-23T16:25:37.302Z,13.32
2022-09-23T16:28:06.004Z,17.02
2022-09-23T16:30:35.140Z,23.30
2022-09-23T16:33:05.147Z,22.55
2022-09-23T16:35:33.923Z,23.50
2022-09-23T16:38:02.323Z,19.20
2022-09-23T16:40:32.039Z,17.25
2022-09-23T16:43:02.265Z,21.38
2022-09-23T16:45:31.438Z,16.25
2022-09-23T16:48:00.105Z,20.40
2022-09-23T16:50:30.005Z,15.45
2022-09-23T16:52:58.499Z,25.02
2022-09-23T16:55:27.432Z,28.75
2022-09-23T16:57:56.192Z,61.88
2022-09-23T17:00:42.770Z,58.40
2022-09-23T17:03:38.839Z,92.47
2022-09-23T17:06:08.984Z,124.85
2022-09-23T17:08:37.498Z,130.75
2022-09-23T17:11:06.832Z,135.57
2022-09-23T17:13:35.273Z,154.63
2022-09-23T17:16:04.009Z,166.88
2022-09-23T17:18:32.905Z,158.20
2022-09-23T17:21:02.515Z,135.63
2022-09-23T17:23:32.555Z,136.75
2022-09-23T17:26:01.138Z,161.15
2022-09-23T17:28:29.666Z,142.73
2022-09-23T17:30:59.123Z,123.13
2022-09-23T17:33:27.820Z,128.55
2022-09-23T17:35:56.925Z,116.60
2022-09-23T17:38:28.890Z,119.70
2022-09-23T17:41:02.258Z,116.60
2022-09-23T17:43:31.648Z,109.95
2022-09-23T17:46:06.665Z,108.03
2022-09-23T17:48:36.782Z,111.28
2022-09-23T17:51:07.002Z,105.72
2022-09-23T17:53:38.592Z,98.32
2022-09-23T17:56:12.370Z,91.55
2022-09-23T17:58:40.855Z,98.25
2022-09-23T18:01:11.049Z,93.78
2022-09-23T18:03:39.861Z,87.80
2022-09-23T18:06:10.661Z,80.05
2022-09-23T18:08:39.210Z,81.70
2022-09-23T18:11:18.693Z,84.00
2022-09-23T18:13:51.512Z,85.00
2022-09-23T18:16:20.296Z,79.95
2022-09-23T18:18:52.872Z,71.40
2022-09-23T18:21:21.978Z,75.15
2022-09-23T18:23:50.526Z,74.05
2022-09-23T18:26:23.578Z,79.15
2022-09-23T18:28:52.934Z,71.78
2022-09-23T18:31:22.607Z,77.30
2022-09-23T18:33:51.626Z,70.40
2022-09-23T18:36:21.116Z,71.00
2022-09-23T18:38:50.178Z,66.25
2022-09-23T18:41:18.883Z,62.83
2022-09-23T18:43:49.176Z,65.72
2022-09-23T18:46:18.948Z,64.38
2022-09-23T18:49:05.376Z,61.70
2022-09-23T18:51:36.801Z,59.75
2022-09-23T18:54:08.394Z,58.67
2022-09-23T18:56:42.079Z,56.10
2022-09-23T18:59:14.641Z,49.70
2022-09-23T19:01:43.624Z,47.90
2022-09-23T19:04:12.440Z,56.05
2022-09-23T19:06:41.113Z,58.05
2022-09-23T19:09:21.675Z,46.45
2022-09-23T19:11:52.438Z,51.22
2022-09-23T19:14:22.534Z,51.67
2022-09-23T19:16:51.083Z,46.35
2022-09-23T19:19:19.714Z,45.85
2022-09-23T19:21:48.270Z,38.20
2022-09-23T19:24:20.267Z,40.72
2022-09-23T19:26:50.419Z,36.85
2022-09-23T19:29:22.021Z,36.92
2022-09-23T19:31:52.090Z,39.20
2022-09-23T19:34:24.021Z,37.53
2022-09-23T19:36:52.845Z,33.88
2022-09-23T19:39:22.687Z,32.53
2022-09-23T19:41:51.369Z,34.58
2022-09-23T19:44:20.980Z,32.80
2022-09-23T19:46:56.009Z,32.55
2022-09-23T19:49:26.237Z,32.13
2022-09-23T19:51:56.171Z,33.08
2022-09-23T19:54:26.700Z,33.58
2022-09-23T19:56:55.619Z,34.20
2022-09-23T19:59:26.656Z,32.90
2022-09-23T20:01:56.705Z,28.25
2022-09-23T20:04:26.383Z,30.77
2022-09-23T20:06:54.968Z,29.50
2022-09-23T20:09:23.634Z,29.13
2022-09-23T20:11:52.254Z,29.15
2022-09-23T20:14:22.141Z,29.85
2022-09-23T20:16:53.192Z,27.70
2022-09-23T20:19:23.460Z,29.73
2022-09-23T20:22:11.972Z,28.40
2022-09-23T20:24:40.603Z,25.73
2022-09-23T20:27:11.476Z,27.55
2022-09-23T20:29:39.939Z,27.38
2022-09-23T20:32:09.865Z,29.38
2022-09-23T20:34:40.198Z,26.98
2022-09-23T20:37:10.846Z,30.65
2022-09-23T20:39:39.316Z,27.90
2022-09-23T20:42:09.312Z,26.92
2022-09-23T20:44:37.762Z,24.33
2022-09-23T20:47:06.397Z,25.73
2022-09-23T20:49:36.457Z,27.05
2022-09-23T20:52:06.447Z,25.17
2022-09-23T20:54:34.901Z,31.15
2022-09-23T20:57:03.487Z,27.65
2022-09-23T20:59:31.951Z,27.38
2022-09-23T21:02:00.397Z,25.13
2022-09-23T21:04:28.854Z,25.25
2022-09-23T21:06:57.656Z,25.42
2022-09-23T21:09:28.527Z,26.00
2022-09-23T21:11:57.081Z,23.65
2022-09-23T21:14:25.966Z,25.20
2022-09-23T21:16:54.805Z,22.55
2022-09-23T21:19:24.462Z,21.88
2022-09-23T21:21:52.923Z,23.05
2022-09-23T21:27:11.738Z,24.52
2022-09-23T21:29:40.316Z,23.80
2022-09-23T21:32:08.726Z,23.50
2022-09-23T21:34:37.178Z,21.85
2022-09-23T21:37:06.002Z,22.38
2022-09-23T21:39:34.465Z,22.80
2022-09-23T21:42:02.983Z,24.92
2022-09-23T21:44:32.911Z,20.25
2022-09-23T21:47:01.507Z,22.33
2022-09-23T21:49:31.254Z,21.77
2022-09-23T21:52:00.865Z,20.50
2022-09-23T21:54:29.703Z,21.08
2022-09-23T21:56:58.297Z,22.75
2022-09-23T21:59:26.779Z,17.90
2022-09-23T22:01:56.601Z,19.38
2022-09-23T22:04:25.168Z,17.65
2022-09-23T22:06:54.086Z,20.58
2022-09-23T22:09:22.692Z,17.98
2022-09-23T22:12:08.707Z,19.75
2022-09-23T22:14:38.960Z,17.35
2022-09-23T22:17:10.892Z,18.02
2022-09-23T22:19:45.620Z,19.70
2022-09-23T22:22:16.457Z,19.33
2022-09-23T22:24:46.493Z,21.10
2022-09-23T22:27:16.557Z,17.55
2022-09-23T22:30:02.688Z,20.42
2022-09-23T22:32:54.275Z,19.50
2022-09-23T22:35:23.613Z,18.35
2022-09-23T22:37:52.222Z,17.77
2022-09-23T22:40:21.011Z,19.30
2022-09-23T22:42:49.797Z,19.48
2022-09-23T22:45:18.372Z,17.02
2022-09-23T22:47:48.940Z,18.00
2022-09-23T22:50:17.548Z,15.63
2022-09-23T22:52:46.079Z,17.95
2022-09-23T22:55:14.475Z,17.38
2022-09-23T22:57:42.944Z,17.95
2022-09-23T23:00:13.541Z,17.08
2022-09-23T23:02:42.714Z,16.88
2022-09-23T23:05:13.329Z,17.35
2022-09-23T23:07:41.866Z,16.50
2022-09-23T23:10:11.115Z,17.08
2022-09-23T23:12:40.184Z,19.65
2022-09-23T23:15:10.682Z,15.63
2022-09-23T23:17:40.551Z,15.73
2022-09-23T23:20:10.165Z,17.98
2022-09-23T23:22:39.975Z,16.77
2022-09-23T23:25:09.833Z,14.88
2022-09-23T23:27:38.398Z,17.02
2022-09-23T23:30:08.879Z,16.30
2022-09-23T23:32:37.329Z,18.48
2022-09-23T23:35:06.969Z,18.73
2022-09-23T23:37:35.451Z,17.38
2022-09-23T23:40:05.921Z,16.55
2022-09-23T23:42:34.799Z,18.80
2022-09-23T23:45:03.269Z,18.63
2022-09-23T23:47:31.801Z,17.17
2022-09-23T23:50:00.219Z,18.70
2022-09-23T23:52:28.706Z,19.65
2022-09-23T23:54:57.156Z,18.90
2022-09-23T23:57:27.005Z,19.98
2022-09-23T23:59:55.657Z,21.42
